PWSweather.com
Personal Weather Stations
Station Observations
BEACONHILL
Australia, Beacon HillAU 2100

AustraliaBeacon HillAU 2100

Lat: -33.753032, Lon: 151.251456

Elevation: 510

Station Type: Davis Vantage Pro2 Plus

Latest ConditionsUpdated 6:45:00 AM GMT+10:10 Tuesday, Sep 24, 2019
Currently Today's Max Today's Min Today's Average
Temperature 51.2°F10.7°C 52.4°F11.3°C 49.7°F9.8°C 51.1°F10.6°C
Dew Point 38.2°F3.4°C 38.4°F3.6°C 37.2°F2.9°C 37.7°F3.2°C
Winds 5.3 mph WSW8.5 kmh WSW 5.3 mph -8.5 kmh - - 3.6 mph 5.8 kmh
Wind Gusts 11.0 mph17.7 kmh 12.0 mph19.3 kmh - -
Humidity 61% 64% 57% 60%
Pressure 30.32 in1026.8 mb 30.32 in1026.8 mb 30.27 in1025.1 mb -
Hour Temp Dew Point Humidity Winds Wind Gusts Pressure Precip Precip Rate Daily Precip Total
06:45 AM 51.2°F10.7°C 38.2°F3.4°C 61% 5.3 mph WSW8.5 kmh WSW 11.0 mph17.7 kmh 30.32 in1026.8 mb 0.00 in0.0 mm 0.00 in0.0 mm 0.00 in0.0 mm
06:40 AM 50.9°F10.5°C 38.4°F3.6°C 62% 3.7 mph WSW6.0 kmh WSW 11.0 mph17.7 kmh 30.32 in1026.8 mb 0.00 in0.0 mm 0.00 in0.0 mm 0.00 in0.0 mm
06:35 AM 50.5°F10.3°C 38.4°F3.6°C 63% 5.2 mph WSW8.4 kmh WSW 11.0 mph17.7 kmh 30.31 in1026.4 mb 0.00 in0.0 mm 0.00 in0.0 mm 0.00 in0.0 mm
06:30 AM 50.3°F10.2°C 38.2°F3.4°C 63% 5.0 mph WSW8.0 kmh WSW 10.0 mph16.1 kmh 30.31 in1026.4 mb 0.00 in0.0 mm 0.00 in0.0 mm 0.00 in0.0 mm
06:25 AM 50.1°F10.1°C 38.0°F3.3°C 63% 4.6 mph WSW7.4 kmh WSW 12.0 mph19.3 kmh 30.31 in1026.4 mb 0.00 in0.0 mm 0.00 in0.0 mm 0.00 in0.0 mm
06:20 AM 49.9°F9.9°C 38.2°F3.4°C 64% 4.2 mph WSW6.8 kmh WSW 12.0 mph19.3 kmh 30.31 in1026.4 mb 0.00 in0.0 mm 0.00 in0.0 mm 0.00 in0.0 mm
06:15 AM 49.7°F9.8°C 38.0°F3.3°C 64% 4.1 mph WSW6.6 kmh WSW 10.0 mph16.1 kmh 30.31 in1026.4 mb 0.00 in0.0 mm 0.00 in0.0 mm 0.00 in0.0 mm
06:10 AM 49.7°F9.8°C 37.6°F3.1°C 63% 4.8 mph WSW7.7 kmh WSW 10.0 mph16.1 kmh 30.30 in1026.1 mb 0.00 in0.0 mm 0.00 in0.0 mm 0.00 in0.0 mm
06:05 AM 49.7°F9.8°C 37.6°F3.1°C 63% 3.4 mph WSW5.5 kmh WSW 9.0 mph14.5 kmh 30.30 in1026.1 mb 0.00 in0.0 mm 0.00 in0.0 mm 0.00 in0.0 mm
06:00 AM 49.7°F9.8°C 37.6°F3.1°C 63% 4.1 mph WSW6.6 kmh WSW 10.0 mph16.1 kmh 30.30 in1026.1 mb 0.00 in0.0 mm 0.00 in0.0 mm 0.00 in0.0 mm
05:55 AM 49.8°F9.9°C 37.7°F3.2°C 63% 4.3 mph WSW6.9 kmh WSW 10.0 mph16.1 kmh 30.29 in1025.7 mb 0.00 in0.0 mm 0.00 in0.0 mm 0.00 in0.0 mm
05:50 AM 49.8°F9.9°C 37.3°F2.9°C 62% 3.9 mph WSW6.3 kmh WSW 8.0 mph12.9 kmh 30.29 in1025.7 mb 0.00 in0.0 mm 0.00 in0.0 mm 0.00 in0.0 mm
05:45 AM 49.9°F9.9°C 37.4°F3.0°C 62% 3.3 mph WSW5.3 kmh WSW 8.0 mph12.9 kmh 30.29 in1025.7 mb 0.00 in0.0 mm 0.00 in0.0 mm 0.00 in0.0 mm
05:40 AM 50.0°F10.0°C 37.5°F3.1°C 62% 4.2 mph WSW6.8 kmh WSW 9.0 mph14.5 kmh 30.29 in1025.7 mb 0.00 in0.0 mm 0.00 in0.0 mm 0.00 in0.0 mm
05:35 AM 50.0°F10.0°C 37.5°F3.1°C 62% 3.9 mph WSW6.3 kmh WSW 9.0 mph14.5 kmh 30.29 in1025.7 mb 0.00 in0.0 mm 0.00 in0.0 mm 0.00 in0.0 mm
05:30 AM 50.0°F10.0°C 37.5°F3.1°C 62% 4.2 mph WSW6.8 kmh WSW 10.0 mph16.1 kmh 30.29 in1025.7 mb 0.00 in0.0 mm 0.00 in0.0 mm 0.00 in0.0 mm
05:25 AM 50.0°F10.0°C 37.5°F3.1°C 62% 3.7 mph WSW6.0 kmh WSW 11.0 mph17.7 kmh 30.28 in1025.4 mb 0.00 in0.0 mm 0.00 in0.0 mm 0.00 in0.0 mm
05:20 AM 50.0°F10.0°C 37.5°F3.1°C 62% 4.2 mph WSW6.8 kmh WSW 11.0 mph17.7 kmh 30.28 in1025.4 mb 0.00 in0.0 mm 0.00 in0.0 mm 0.00 in0.0 mm
05:15 AM 50.1°F10.1°C 37.6°F3.1°C 62% 2.8 mph WSW4.5 kmh WSW 7.0 mph11.3 kmh 30.28 in1025.4 mb 0.00 in0.0 mm 0.00 in0.0 mm 0.00 in0.0 mm
05:10 AM 50.1°F10.1°C 37.6°F3.1°C 62% 3.5 mph WSW5.6 kmh WSW 9.0 mph14.5 kmh 30.28 in1025.4 mb 0.00 in0.0 mm 0.00 in0.0 mm 0.00 in0.0 mm
05:05 AM 50.1°F10.1°C 37.6°F3.1°C 62% 4.3 mph WSW6.9 kmh WSW 9.0 mph14.5 kmh 30.28 in1025.4 mb 0.00 in0.0 mm 0.00 in0.0 mm 0.00 in0.0 mm
05:00 AM 50.1°F10.1°C 37.6°F3.1°C 62% 3.8 mph WSW6.1 kmh WSW 10.0 mph16.1 kmh 30.28 in1025.4 mb 0.00 in0.0 mm 0.00 in0.0 mm 0.00 in0.0 mm
04:55 AM 50.0°F10.0°C 37.5°F3.1°C 62% 4.2 mph WSW6.8 kmh WSW 10.0 mph16.1 kmh 30.28 in1025.4 mb 0.00 in0.0 mm 0.00 in0.0 mm 0.00 in0.0 mm
04:50 AM 50.0°F10.0°C 37.5°F3.1°C 62% 3.9 mph WSW6.3 kmh WSW 10.0 mph16.1 kmh 30.28 in1025.4 mb 0.00 in0.0 mm 0.00 in0.0 mm 0.00 in0.0 mm
04:45 AM 50.0°F10.0°C 37.5°F3.1°C 62% 3.6 mph WSW5.8 kmh WSW 10.0 mph16.1 kmh 30.28 in1025.4 mb 0.00 in0.0 mm 0.00 in0.0 mm 0.00 in0.0 mm
04:40 AM 50.1°F10.1°C 37.6°F3.1°C 62% 4.3 mph WSW6.9 kmh WSW 10.0 mph16.1 kmh 30.28 in1025.4 mb 0.00 in0.0 mm 0.00 in0.0 mm 0.00 in0.0 mm
04:35 AM 50.2°F10.1°C 37.7°F3.2°C 62% 3.4 mph WSW5.5 kmh WSW 9.0 mph14.5 kmh 30.28 in1025.4 mb 0.00 in0.0 mm 0.00 in0.0 mm 0.00 in0.0 mm
04:30 AM 50.2°F10.1°C 37.7°F3.2°C 62% 3.6 mph WSW5.8 kmh WSW 10.0 mph16.1 kmh 30.27 in1025.1 mb 0.00 in0.0 mm 0.00 in0.0 mm 0.00 in0.0 mm
04:25 AM 50.2°F10.1°C 37.7°F3.2°C 62% 3.9 mph WSW6.3 kmh WSW 10.0 mph16.1 kmh 30.27 in1025.1 mb 0.00 in0.0 mm 0.00 in0.0 mm 0.00 in0.0 mm
04:20 AM 50.2°F10.1°C 37.7°F3.2°C 62% 4.3 mph WSW6.9 kmh WSW 8.0 mph12.9 kmh 30.28 in1025.4 mb 0.00 in0.0 mm 0.00 in0.0 mm 0.00 in0.0 mm
04:15 AM 50.2°F10.1°C 37.7°F3.2°C 62% 3.9 mph WSW6.3 kmh WSW 8.0 mph12.9 kmh 30.27 in1025.1 mb 0.00 in0.0 mm 0.00 in0.0 mm 0.00 in0.0 mm
04:10 AM 50.4°F10.2°C 37.9°F3.3°C 62% 4.2 mph WSW6.8 kmh WSW 8.0 mph12.9 kmh 30.27 in1025.1 mb 0.00 in0.0 mm 0.00 in0.0 mm 0.00 in0.0 mm
04:05 AM 50.5°F10.3°C 38.0°F3.3°C 62% 4.0 mph WSW6.4 kmh WSW 8.0 mph12.9 kmh 30.27 in1025.1 mb 0.00 in0.0 mm 0.00 in0.0 mm 0.00 in0.0 mm
04:00 AM 50.6°F10.3°C 37.7°F3.2°C 61% 3.3 mph WSW5.3 kmh WSW 8.0 mph12.9 kmh 30.27 in1025.1 mb 0.00 in0.0 mm 0.00 in0.0 mm 0.00 in0.0 mm
03:55 AM 50.7°F10.4°C 37.7°F3.2°C 61% 3.2 mph WSW5.1 kmh WSW 7.0 mph11.3 kmh 30.28 in1025.4 mb 0.00 in0.0 mm 0.00 in0.0 mm 0.00 in0.0 mm
03:50 AM 50.7°F10.4°C 37.7°F3.2°C 61% 3.0 mph WSW4.8 kmh WSW 7.0 mph11.3 kmh 30.28 in1025.4 mb 0.00 in0.0 mm 0.00 in0.0 mm 0.00 in0.0 mm
03:45 AM 50.8°F10.4°C 37.8°F3.2°C 61% 3.4 mph WSW5.5 kmh WSW 9.0 mph14.5 kmh 30.27 in1025.1 mb 0.00 in0.0 mm 0.00 in0.0 mm 0.00 in0.0 mm
03:40 AM 50.8°F10.4°C 37.8°F3.2°C 61% 4.7 mph WSW7.6 kmh WSW 10.0 mph16.1 kmh 30.27 in1025.1 mb 0.00 in0.0 mm 0.00 in0.0 mm 0.00 in0.0 mm
03:35 AM 50.9°F10.5°C 37.5°F3.1°C 60% 4.6 mph WSW7.4 kmh WSW 10.0 mph16.1 kmh 30.28 in1025.4 mb 0.00 in0.0 mm 0.00 in0.0 mm 0.00 in0.0 mm
03:30 AM 50.9°F10.5°C 37.5°F3.1°C 60% 5.0 mph WSW8.0 kmh WSW 9.0 mph14.5 kmh 30.27 in1025.1 mb 0.00 in0.0 mm 0.00 in0.0 mm 0.00 in0.0 mm
03:25 AM 50.9°F10.5°C 37.5°F3.1°C 60% 4.6 mph WSW7.4 kmh WSW 10.0 mph16.1 kmh 30.27 in1025.1 mb 0.00 in0.0 mm 0.00 in0.0 mm 0.00 in0.0 mm
03:20 AM 50.9°F10.5°C 37.5°F3.1°C 60% 4.3 mph WSW6.9 kmh WSW 10.0 mph16.1 kmh 30.27 in1025.1 mb 0.00 in0.0 mm 0.00 in0.0 mm 0.00 in0.0 mm
03:15 AM 51.0°F10.6°C 37.6°F3.1°C 60% 3.2 mph WSW5.1 kmh WSW 8.0 mph12.9 kmh 30.27 in1025.1 mb 0.00 in0.0 mm 0.00 in0.0 mm 0.00 in0.0 mm
03:10 AM 51.1°F10.6°C 37.7°F3.2°C 60% 3.8 mph WSW6.1 kmh WSW 11.0 mph17.7 kmh 30.27 in1025.1 mb 0.00 in0.0 mm 0.00 in0.0 mm 0.00 in0.0 mm
03:05 AM 51.2°F10.7°C 37.8°F3.2°C 60% 4.0 mph WSW6.4 kmh WSW 11.0 mph17.7 kmh 30.27 in1025.1 mb 0.00 in0.0 mm 0.00 in0.0 mm 0.00 in0.0 mm
03:00 AM 51.3°F10.7°C 37.9°F3.3°C 60% 4.6 mph WSW7.4 kmh WSW 10.0 mph16.1 kmh 30.27 in1025.1 mb 0.00 in0.0 mm 0.00 in0.0 mm 0.00 in0.0 mm
02:55 AM 51.3°F10.7°C 37.9°F3.3°C 60% 4.9 mph WSW7.9 kmh WSW 10.0 mph16.1 kmh 30.27 in1025.1 mb 0.00 in0.0 mm 0.00 in0.0 mm 0.00 in0.0 mm
02:50 AM 51.4°F10.8°C 37.6°F3.1°C 59% 3.8 mph WSW6.1 kmh WSW 9.0 mph14.5 kmh 30.27 in1025.1 mb 0.00 in0.0 mm 0.00 in0.0 mm 0.00 in0.0 mm
02:45 AM 51.4°F10.8°C 37.6°F3.1°C 59% 4.6 mph WSW7.4 kmh WSW 10.0 mph16.1 kmh 30.27 in1025.1 mb 0.00 in0.0 mm 0.00 in0.0 mm 0.00 in0.0 mm
02:40 AM 51.5°F10.8°C 37.7°F3.2°C 59% 4.3 mph WSW6.9 kmh WSW 10.0 mph16.1 kmh 30.27 in1025.1 mb 0.00 in0.0 mm 0.00 in0.0 mm 0.00 in0.0 mm
02:35 AM 51.5°F10.8°C 37.7°F3.2°C 59% 5.0 mph WSW8.0 kmh WSW 10.0 mph16.1 kmh 30.28 in1025.4 mb 0.00 in0.0 mm 0.00 in0.0 mm 0.00 in0.0 mm
02:30 AM 51.5°F10.8°C 37.7°F3.2°C 59% 4.0 mph WSW6.4 kmh WSW 10.0 mph16.1 kmh 30.28 in1025.4 mb 0.00 in0.0 mm 0.00 in0.0 mm 0.00 in0.0 mm
02:25 AM 51.5°F10.8°C 37.7°F3.2°C 59% 4.3 mph WSW6.9 kmh WSW 10.0 mph16.1 kmh 30.28 in1025.4 mb 0.00 in0.0 mm 0.00 in0.0 mm 0.00 in0.0 mm
02:20 AM 51.5°F10.8°C 37.7°F3.2°C 59% 4.3 mph WSW6.9 kmh WSW 9.0 mph14.5 kmh 30.28 in1025.4 mb 0.00 in0.0 mm 0.00 in0.0 mm 0.00 in0.0 mm
02:15 AM 51.5°F10.8°C 37.7°F3.2°C 59% 4.2 mph WSW6.8 kmh WSW 9.0 mph14.5 kmh 30.28 in1025.4 mb 0.00 in0.0 mm 0.00 in0.0 mm 0.00 in0.0 mm
02:10 AM 51.6°F10.9°C 37.7°F3.2°C 59% 3.4 mph WSW5.5 kmh WSW 11.0 mph17.7 kmh 30.28 in1025.4 mb 0.00 in0.0 mm 0.00 in0.0 mm 0.00 in0.0 mm
02:05 AM 51.7°F10.9°C 37.8°F3.2°C 59% 3.7 mph WSW6.0 kmh WSW 11.0 mph17.7 kmh 30.28 in1025.4 mb 0.00 in0.0 mm 0.00 in0.0 mm 0.00 in0.0 mm
02:00 AM 51.9°F11.1°C 38.0°F3.3°C 59% 3.9 mph WSW6.3 kmh WSW 9.0 mph14.5 kmh 30.27 in1025.1 mb 0.00 in0.0 mm 0.00 in0.0 mm 0.00 in0.0 mm
01:55 AM 52.0°F11.1°C 37.7°F3.2°C 58% 4.2 mph WSW6.8 kmh WSW 9.0 mph14.5 kmh 30.27 in1025.1 mb 0.00 in0.0 mm 0.00 in0.0 mm 0.00 in0.0 mm
01:50 AM 52.1°F11.2°C 37.8°F3.2°C 58% 4.0 mph WSW6.4 kmh WSW 10.0 mph16.1 kmh 30.27 in1025.1 mb 0.00 in0.0 mm 0.00 in0.0 mm 0.00 in0.0 mm
01:45 AM 52.2°F11.2°C 37.9°F3.3°C 58% 3.9 mph WSW6.3 kmh WSW 10.0 mph16.1 kmh 30.27 in1025.1 mb 0.00 in0.0 mm 0.00 in0.0 mm 0.00 in0.0 mm
01:40 AM 52.2°F11.2°C 37.9°F3.3°C 58% 4.3 mph WSW6.9 kmh WSW 9.0 mph14.5 kmh 30.28 in1025.4 mb 0.00 in0.0 mm 0.00 in0.0 mm 0.00 in0.0 mm
01:35 AM 52.3°F11.3°C 38.0°F3.3°C 58% 3.3 mph WSW5.3 kmh WSW 7.0 mph11.3 kmh 30.28 in1025.4 mb 0.00 in0.0 mm 0.00 in0.0 mm 0.00 in0.0 mm
01:30 AM 52.4°F11.3°C 38.1°F3.4°C 58% 2.6 mph SW4.2 kmh SW 8.0 mph12.9 kmh 30.28 in1025.4 mb 0.00 in0.0 mm 0.00 in0.0 mm 0.00 in0.0 mm
01:25 AM 52.3°F11.3°C 38.0°F3.3°C 58% 3.7 mph WSW6.0 kmh WSW 10.0 mph16.1 kmh 30.28 in1025.4 mb 0.00 in0.0 mm 0.00 in0.0 mm 0.00 in0.0 mm
01:20 AM 52.2°F11.2°C 37.9°F3.3°C 58% 4.0 mph WSW6.4 kmh WSW 10.0 mph16.1 kmh 30.28 in1025.4 mb 0.00 in0.0 mm 0.00 in0.0 mm 0.00 in0.0 mm
01:15 AM 52.2°F11.2°C 37.9°F3.3°C 58% 2.7 mph WSW4.3 kmh WSW 8.0 mph12.9 kmh 30.28 in1025.4 mb 0.00 in0.0 mm 0.00 in0.0 mm 0.00 in0.0 mm
01:10 AM 52.3°F11.3°C 38.0°F3.3°C 58% 2.7 mph WSW4.3 kmh WSW 8.0 mph12.9 kmh 30.28 in1025.4 mb 0.00 in0.0 mm 0.00 in0.0 mm 0.00 in0.0 mm
01:05 AM 52.3°F11.3°C 38.0°F3.3°C 58% 2.5 mph WSW4.0 kmh WSW 7.0 mph11.3 kmh 30.28 in1025.4 mb 0.00 in0.0 mm 0.00 in0.0 mm 0.00 in0.0 mm
01:00 AM 52.3°F11.3°C 38.0°F3.3°C 58% 1.2 mph WSW1.9 kmh WSW 7.0 mph11.3 kmh 30.28 in1025.4 mb 0.00 in0.0 mm 0.00 in0.0 mm 0.00 in0.0 mm
12:55 AM 52.4°F11.3°C 38.1°F3.4°C 58% 1.8 mph SW2.9 kmh SW 7.0 mph11.3 kmh 30.28 in1025.4 mb 0.00 in0.0 mm 0.00 in0.0 mm 0.00 in0.0 mm
12:50 AM 52.4°F11.3°C 38.1°F3.4°C 58% 1.5 mph SW2.4 kmh SW 7.0 mph11.3 kmh 30.28 in1025.4 mb 0.00 in0.0 mm 0.00 in0.0 mm 0.00 in0.0 mm
12:45 AM 52.4°F11.3°C 38.1°F3.4°C 58% 1.8 mph SW2.9 kmh SW 7.0 mph11.3 kmh 30.27 in1025.1 mb 0.00 in0.0 mm 0.00 in0.0 mm 0.00 in0.0 mm
12:40 AM 52.3°F11.3°C 37.5°F3.1°C 57% 2.6 mph SW4.2 kmh SW 7.0 mph11.3 kmh 30.28 in1025.4 mb 0.00 in0.0 mm 0.00 in0.0 mm 0.00 in0.0 mm
12:35 AM 52.3°F11.3°C 38.0°F3.3°C 58% 1.5 mph WSW2.4 kmh WSW 4.0 mph6.4 kmh 30.28 in1025.4 mb 0.00 in0.0 mm 0.00 in0.0 mm 0.00 in0.0 mm
12:30 AM 52.2°F11.2°C 37.4°F3.0°C 57% 1.7 mph SW2.7 kmh SW 5.0 mph8.0 kmh 30.28 in1025.4 mb 0.00 in0.0 mm 0.00 in0.0 mm 0.00 in0.0 mm
12:25 AM 52.0°F11.1°C 37.2°F2.9°C 57% 1.4 mph SW2.3 kmh SW 5.0 mph8.0 kmh 30.28 in1025.4 mb 0.00 in0.0 mm 0.00 in0.0 mm 0.00 in0.0 mm
12:20 AM 51.9°F11.1°C 37.2°F2.9°C 57% 1.0 mph SW1.6 kmh SW 4.0 mph6.4 kmh 30.28 in1025.4 mb 0.00 in0.0 mm 0.00 in0.0 mm 0.00 in0.0 mm
12:15 AM 52.0°F11.1°C 37.2°F2.9°C 57% 0.6 mph SSW1.0 kmh SSW 3.0 mph4.8 kmh 30.28 in1025.4 mb 0.00 in0.0 mm 0.00 in0.0 mm 0.00 in0.0 mm
12:10 AM 52.0°F11.1°C 37.2°F2.9°C 57% 1.5 mph SSW2.4 kmh SSW 5.0 mph8.0 kmh 30.27 in1025.1 mb 0.00 in0.0 mm 0.00 in0.0 mm 0.00 in0.0 mm
12:05 AM 52.2°F11.2°C 37.4°F3.0°C 57% 2.2 mph SW3.5 kmh SW 5.0 mph8.0 kmh 30.27 in1025.1 mb 0.00 in0.0 mm 0.00 in0.0 mm 0.00 in0.0 mm
12:00 AM 52.4°F11.3°C 37.6°F3.1°C 57% 1.6 mph SW2.6 kmh SW 3.0 mph4.8 kmh 30.27 in1025.1 mb 0.00 in0.0 mm 0.00 in0.0 mm 0.00 in0.0 mm